sensor_id;sensor_type;location;lat;lon;timestamp;pressure;altitude;pressure_sealevel;temperature;humidity
18167;BME280;9208;42.688;23.404;2022-08-11T00:01:23;95600.69;;;22.74;97.86
18167;BME280;9208;42.688;23.404;2022-08-11T00:03:55;95597.84;;;22.67;98.95
18167;BME280;9208;42.688;23.404;2022-08-11T00:06:27;95598.06;;;22.69;98.91
18167;BME280;9208;42.688;23.404;2022-08-11T00:08:55;95595.28;;;22.69;98.86
18167;BME280;9208;42.688;23.404;2022-08-11T00:11:35;95599.75;;;22.72;98.50
18167;BME280;9208;42.688;23.404;2022-08-11T00:14:18;95597.31;;;22.68;98.82
18167;BME280;9208;42.688;23.404;2022-08-11T00:17:05;95598.81;;;22.69;98.90
18167;BME280;9208;42.688;23.404;2022-08-11T00:19:38;95602.91;;;22.68;99.23
18167;BME280;9208;42.688;23.404;2022-08-11T00:22:07;95596.91;;;22.64;99.78
18167;BME280;9208;42.688;23.404;2022-08-11T00:24:34;95594.88;;;22.57;100.00
18167;BME280;9208;42.688;23.404;2022-08-11T00:27:01;95591.69;;;22.53;100.00
18167;BME280;9208;42.688;23.404;2022-08-11T00:29:27;95593.38;;;22.56;100.00
18167;BME280;9208;42.688;23.404;2022-08-11T00:31:57;95582.94;;;22.57;100.00
18167;BME280;9208;42.688;23.404;2022-08-11T00:34:28;95589.44;;;22.52;100.00
18167;BME280;9208;42.688;23.404;2022-08-11T00:37:01;95590.91;;;22.45;100.00
18167;BME280;9208;42.688;23.404;2022-08-11T00:39:30;95583.03;;;22.44;100.00
18167;BME280;9208;42.688;23.404;2022-08-11T00:42:22;95584.34;;;22.43;100.00
18167;BME280;9208;42.688;23.404;2022-08-11T00:45:19;95591.97;;;22.42;100.00
18167;BME280;9208;42.688;23.404;2022-08-11T00:47:59;95588.81;;;22.38;100.00
18167;BME280;9208;42.688;23.404;2022-08-11T00:51:04;95591.03;;;22.40;100.00
18167;BME280;9208;42.688;23.404;2022-08-11T00:54:05;95582.22;;;22.28;100.00
18167;BME280;9208;42.688;23.404;2022-08-11T01:01:56;95595.63;;;22.30;100.00
18167;BME280;9208;42.688;23.404;2022-08-11T01:21:20;95581.78;;;22.17;100.00
18167;BME280;9208;42.688;23.404;2022-08-11T01:30:47;95570.00;;;22.03;100.00
18167;BME280;9208;42.688;23.404;2022-08-11T03:43:36;95595.78;;;20.66;100.00
18167;BME280;9208;42.688;23.404;2022-08-11T03:46:15;95588.28;;;20.61;100.00
18167;BME280;9208;42.688;23.404;2022-08-11T04:11:35;95598.47;;;20.58;100.00
18167;BME280;9208;42.688;23.404;2022-08-11T04:16:46;95604.88;;;20.66;100.00
18167;BME280;9208;42.688;23.404;2022-08-11T04:31:10;95610.41;;;20.79;100.00
18167;BME280;9208;42.688;23.404;2022-08-11T04:34:11;95605.34;;;20.91;100.00
18167;BME280;9208;42.688;23.404;2022-08-11T04:57:56;95615.81;;;21.59;100.00
18167;BME280;9208;42.688;23.404;2022-08-11T05:01:26;95616.63;;;21.67;100.00
18167;BME280;9208;42.688;23.404;2022-08-11T05:12:47;95610.69;;;21.91;100.00
18167;BME280;9208;42.688;23.404;2022-08-11T05:15:18;95612.00;;;21.90;100.00
18167;BME280;9208;42.688;23.404;2022-08-11T05:18:15;95611.09;;;21.95;100.00
18167;BME280;9208;42.688;23.404;2022-08-11T05:21:06;95608.13;;;21.93;100.00
18167;BME280;9208;42.688;23.404;2022-08-11T05:24:04;95610.91;;;21.93;100.00
18167;BME280;9208;42.688;23.404;2022-08-11T05:26:51;95607.94;;;21.99;100.00
18167;BME280;9208;42.688;23.404;2022-08-11T05:29:41;95607.78;;;22.04;100.00
18167;BME280;9208;42.688;23.404;2022-08-11T05:32:32;95612.69;;;22.11;100.00
18167;BME280;9208;42.688;23.404;2022-08-11T05:35:25;95600.63;;;22.16;100.00
18167;BME280;9208;42.688;23.404;2022-08-11T05:37:52;95601.19;;;22.22;100.00
18167;BME280;9208;42.688;23.404;2022-08-11T05:40:38;95605.88;;;22.27;100.00
18167;BME280;9208;42.688;23.404;2022-08-11T05:43:28;95603.88;;;22.35;100.00
18167;BME280;9208;42.688;23.404;2022-08-11T05:46:12;95611.34;;;22.40;100.00
18167;BME280;9208;42.688;23.404;2022-08-11T05:48:56;95604.66;;;22.43;100.00
18167;BME280;9208;42.688;23.404;2022-08-11T05:51:42;95607.66;;;22.45;100.00
18167;BME280;9208;42.688;23.404;2022-08-11T05:54:28;95605.66;;;22.53;99.87
18167;BME280;9208;42.688;23.404;2022-08-11T05:57:21;95598.97;;;22.56;99.67
18167;BME280;9208;42.688;23.404;2022-08-11T05:59:48;95599.69;;;22.57;99.74
18167;BME280;9208;42.688;23.404;2022-08-11T06:02:15;95598.06;;;22.61;99.51
18167;BME280;9208;42.688;23.404;2022-08-11T06:04:41;95595.81;;;22.67;98.93
18167;BME280;9208;42.688;23.404;2022-08-11T06:07:09;95591.72;;;22.68;98.79
18167;BME280;9208;42.688;23.404;2022-08-11T06:09:56;95595.28;;;22.76;98.51
18167;BME280;9208;42.688;23.404;2022-08-11T06:12:24;95601.81;;;22.79;98.29
18167;BME280;9208;42.688;23.404;2022-08-11T06:14:53;95598.66;;;22.82;98.17
18167;BME280;9208;42.688;23.404;2022-08-11T06:17:24;95600.91;;;22.91;97.76
18167;BME280;9208;42.688;23.404;2022-08-11T06:19:51;95598.88;;;22.99;96.98
18167;BME280;9208;42.688;23.404;2022-08-11T06:22:23;95595.38;;;23.06;96.38
18167;BME280;9208;42.688;23.404;2022-08-11T06:24:56;95594.25;;;23.09;96.19
18167;BME280;9208;42.688;23.404;2022-08-11T06:27:29;95594.44;;;23.11;95.93
18167;BME280;9208;42.688;23.404;2022-08-11T06:29:56;95596.72;;;23.20;95.25
18167;BME280;9208;42.688;23.404;2022-08-11T06:32:27;95591.84;;;23.21;95.33
18167;BME280;9208;42.688;23.404;2022-08-11T06:38:01;95594.09;;;23.30;94.60
18167;BME280;9208;42.688;23.404;2022-08-11T06:46:36;95594.13;;;23.45;93.04
18167;BME280;9208;42.688;23.404;2022-08-11T06:49:08;95588.53;;;23.52;92.08
18167;BME280;9208;42.688;23.404;2022-08-11T06:51:54;95597.69;;;23.60;91.92
18167;BME280;9208;42.688;23.404;2022-08-11T06:54:21;95588.72;;;23.69;90.86
18167;BME280;9208;42.688;23.404;2022-08-11T06:56:47;95593.53;;;23.76;88.64
18167;BME280;9208;42.688;23.404;2022-08-11T06:59:33;95589.44;;;23.85;85.38
18167;BME280;9208;42.688;23.404;2022-08-11T07:02:23;95591.84;;;23.88;83.92
18167;BME280;9208;42.688;23.404;2022-08-11T07:04:58;95595.44;;;23.96;84.31
18167;BME280;9208;42.688;23.404;2022-08-11T07:08:07;95588.28;;;24.10;83.32
18167;BME280;9208;42.688;23.404;2022-08-11T07:13:55;95591.63;;;24.16;82.96
18167;BME280;9208;42.688;23.404;2022-08-11T07:23:28;95595.34;;;24.26;78.91
18167;BME280;9208;42.688;23.404;2022-08-11T07:26:14;95589.34;;;24.37;79.42
18167;BME280;9208;42.688;23.404;2022-08-11T07:29:00;95591.19;;;24.42;78.98
18167;BME280;9208;42.688;23.404;2022-08-11T07:31:34;95598.44;;;24.53;78.64
18167;BME280;9208;42.688;23.404;2022-08-11T07:34:33;95595.44;;;24.58;76.57
18167;BME280;9208;42.688;23.404;2022-08-11T07:37:08;95593.94;;;24.65;74.69
18167;BME280;9208;42.688;23.404;2022-08-11T07:39:36;95596.16;;;24.74;73.78
18167;BME280;9208;42.688;23.404;2022-08-11T07:42:08;95600.56;;;24.84;74.23
18167;BME280;9208;42.688;23.404;2022-08-11T07:44:34;95585.91;;;24.93;73.96
18167;BME280;9208;42.688;23.404;2022-08-11T07:47:24;95585.50;;;25.04;72.85
18167;BME280;9208;42.688;23.404;2022-08-11T07:50:09;95592.53;;;25.13;71.24
18167;BME280;9208;42.688;23.404;2022-08-11T07:52:55;95590.50;;;25.13;68.48
18167;BME280;9208;42.688;23.404;2022-08-11T07:55:22;95582.78;;;25.14;69.67
18167;BME280;9208;42.688;23.404;2022-08-11T07:57:52;95586.31;;;25.22;69.31
18167;BME280;9208;42.688;23.404;2022-08-11T08:00:39;95586.53;;;25.16;67.77
18167;BME280;9208;42.688;23.404;2022-08-11T08:03:27;95578.63;;;25.22;68.25
18167;BME280;9208;42.688;23.404;2022-08-11T08:06:12;95571.53;;;25.29;67.86
18167;BME280;9208;42.688;23.404;2022-08-11T08:08:56;95578.78;;;25.32;66.83
18167;BME280;9208;42.688;23.404;2022-08-11T08:11:42;95576.72;;;25.32;66.07
18167;BME280;9208;42.688;23.404;2022-08-11T08:14:27;95573.44;;;25.43;66.21
18167;BME280;9208;42.688;23.404;2022-08-11T08:17:11;95572.66;;;25.50;66.24
18167;BME280;9208;42.688;23.404;2022-08-11T08:19:56;95575.97;;;25.56;64.97
18167;BME280;9208;42.688;23.404;2022-08-11T08:22:22;95575.16;;;25.63;64.01
18167;BME280;9208;42.688;23.404;2022-08-11T08:24:49;95567.16;;;25.77;64.77
18167;BME280;9208;42.688;23.404;2022-08-11T08:27:16;95567.84;;;25.85;64.29
18167;BME280;9208;42.688;23.404;2022-08-11T08:29:42;95574.31;;;25.95;63.82
18167;BME280;9208;42.688;23.404;2022-08-11T08:32:27;95578.38;;;26.02;62.66
18167;BME280;9208;42.688;23.404;2022-08-11T08:34:55;95575.91;;;26.06;62.46
18167;BME280;9208;42.688;23.404;2022-08-11T08:37:23;95574.69;;;26.16;62.06
18167;BME280;9208;42.688;23.404;2022-08-11T08:39:49;95558.06;;;26.28;61.65
18167;BME280;9208;42.688;23.404;2022-08-11T08:42:23;95565.41;;;26.40;60.93
18167;BME280;9208;42.688;23.404;2022-08-11T08:44:59;95568.97;;;26.41;60.44
18167;BME280;9208;42.688;23.404;2022-08-11T08:47:28;95566.06;;;26.48;60.41
18167;BME280;9208;42.688;23.404;2022-08-11T08:50:05;95560.19;;;26.54;60.22
18167;BME280;9208;42.688;23.404;2022-08-11T08:52:36;95567.22;;;26.62;59.73
18167;BME280;9208;42.688;23.404;2022-08-11T08:55:06;95563.25;;;26.65;59.12
18167;BME280;9208;42.688;23.404;2022-08-11T08:57:35;95566.72;;;26.73;58.85
18167;BME280;9208;42.688;23.404;2022-08-11T09:00:03;95563.22;;;26.82;58.58
18167;BME280;9208;42.688;23.404;2022-08-11T09:02:29;95566.84;;;26.92;58.12
18167;BME280;9208;42.688;23.404;2022-08-11T09:04:56;95556.81;;;26.99;57.97
18167;BME280;9208;42.688;23.404;2022-08-11T09:07:23;95556.22;;;27.00;57.68
18167;BME280;9208;42.688;23.404;2022-08-11T09:09:56;95541.69;;;26.94;59.02
18167;BME280;9208;42.688;23.404;2022-08-11T09:12:26;95540.50;;;26.97;59.53
18167;BME280;9208;42.688;23.404;2022-08-11T09:14:53;95542.34;;;27.12;59.22
18167;BME280;9208;42.688;23.404;2022-08-11T09:17:27;95543.34;;;27.24;58.98
18167;BME280;9208;42.688;23.404;2022-08-11T09:19:58;95533.56;;;27.34;58.61
18167;BME280;9208;42.688;23.404;2022-08-11T09:22:26;95538.47;;;27.34;58.38
18167;BME280;9208;42.688;23.404;2022-08-11T09:25:11;95536.44;;;27.44;57.77
18167;BME280;9208;42.688;23.404;2022-08-11T09:27:57;95549.34;;;27.47;57.43
18167;BME280;9208;42.688;23.404;2022-08-11T09:30:24;95545.78;;;27.46;56.33
18167;BME280;9208;42.688;23.404;2022-08-11T09:32:55;95536.69;;;27.29;56.29
18167;BME280;9208;42.688;23.404;2022-08-11T09:35:30;95548.88;;;27.41;55.82
18167;BME280;9208;42.688;23.404;2022-08-11T09:37:57;95540.41;;;27.41;56.09
18167;BME280;9208;42.688;23.404;2022-08-11T09:40:46;95542.22;;;27.46;55.99
18167;BME280;9208;42.688;23.404;2022-08-11T09:43:14;95541.63;;;27.47;55.47
18167;BME280;9208;42.688;23.404;2022-08-11T09:46:03;95540.09;;;27.37;55.10
18167;BME280;9208;42.688;23.404;2022-08-11T09:48:35;95551.25;;;27.44;54.45
18167;BME280;9208;42.688;23.404;2022-08-11T09:51:01;95549.66;;;27.51;53.78
18167;BME280;9208;42.688;23.404;2022-08-11T09:53:31;95535.72;;;27.53;54.69
18167;BME280;9208;42.688;23.404;2022-08-11T09:55:58;95547.16;;;27.64;54.25
18167;BME280;9208;42.688;23.404;2022-08-11T09:58:44;95537.09;;;27.71;53.13
18167;BME280;9208;42.688;23.404;2022-08-11T10:01:11;95546.16;;;27.79;53.20
18167;BME280;9208;42.688;23.404;2022-08-11T10:03:53;95550.63;;;27.82;52.22
18167;BME280;9208;42.688;23.404;2022-08-11T10:06:22;95551.25;;;27.80;51.43
18167;BME280;9208;42.688;23.404;2022-08-11T10:09:06;95537.59;;;27.86;51.32
18167;BME280;9208;42.688;23.404;2022-08-11T10:11:33;95545.91;;;27.94;50.59
18167;BME280;9208;42.688;23.404;2022-08-11T10:14:02;95527.84;;;27.97;51.66
18167;BME280;9208;42.688;23.404;2022-08-11T10:16:49;95516.72;;;28.08;52.64
18167;BME280;9208;42.688;23.404;2022-08-11T10:19:16;95519.97;;;28.14;52.74
18167;BME280;9208;42.688;23.404;2022-08-11T10:21:46;95525.91;;;28.18;52.04
18167;BME280;9208;42.688;23.404;2022-08-11T10:24:31;95531.56;;;28.18;52.00
18167;BME280;9208;42.688;23.404;2022-08-11T10:27:16;95526.50;;;28.17;52.13
18167;BME280;9208;42.688;23.404;2022-08-11T10:29:43;95528.59;;;28.07;51.89
18167;BME280;9208;42.688;23.404;2022-08-11T10:32:28;95520.41;;;27.92;52.38
18167;BME280;9208;42.688;23.404;2022-08-11T10:35:20;95524.28;;;27.87;52.09
18167;BME280;9208;42.688;23.404;2022-08-11T10:37:54;95528.25;;;27.84;51.81
18167;BME280;9208;42.688;23.404;2022-08-11T10:40:21;95515.19;;;27.79;52.60
18167;BME280;9208;42.688;23.404;2022-08-11T10:42:54;95517.38;;;27.71;52.33
18167;BME280;9208;42.688;23.404;2022-08-11T10:45:37;95511.72;;;27.61;52.45
18167;BME280;9208;42.688;23.404;2022-08-11T10:48:23;95506.09;;;27.61;51.97
18167;BME280;9208;42.688;23.404;2022-08-11T10:50:50;95503.88;;;27.60;51.44
18167;BME280;9208;42.688;23.404;2022-08-11T10:53:35;95503.25;;;27.61;51.39
18167;BME280;9208;42.688;23.404;2022-08-11T10:56:21;95500.63;;;27.63;51.82
18167;BME280;9208;42.688;23.404;2022-08-11T10:59:07;95489.34;;;27.73;51.96
18167;BME280;9208;42.688;23.404;2022-08-11T11:01:37;95501.25;;;27.81;51.20
18167;BME280;9208;42.688;23.404;2022-08-11T11:04:06;95522.94;;;27.88;49.85
18167;BME280;9208;42.688;23.404;2022-08-11T11:09:29;95506.00;;;27.97;50.49
18167;BME280;9208;42.688;23.404;2022-08-11T11:12:02;95510.03;;;27.94;50.35
18167;BME280;9208;42.688;23.404;2022-08-11T11:14:50;95492.69;;;27.98;51.35
18167;BME280;9208;42.688;23.404;2022-08-11T11:17:42;95490.91;;;28.12;51.33
18167;BME280;9208;42.688;23.404;2022-08-11T11:23:27;95504.25;;;28.21;50.60
18167;BME280;9208;42.688;23.404;2022-08-11T11:37:00;95470.84;;;27.70;53.95
18167;BME280;9208;42.688;23.404;2022-08-11T11:39:29;95472.44;;;27.54;52.90
18167;BME280;9208;42.688;23.404;2022-08-11T11:42:03;95477.75;;;27.50;52.51
18167;BME280;9208;42.688;23.404;2022-08-11T11:44:29;95477.75;;;27.40;52.45
18167;BME280;9208;42.688;23.404;2022-08-11T11:46:57;95472.38;;;27.35;52.03
18167;BME280;9208;42.688;23.404;2022-08-11T11:49:27;95460.69;;;27.29;52.95
18167;BME280;9208;42.688;23.404;2022-08-11T11:51:54;95470.75;;;27.32;52.12
18167;BME280;9208;42.688;23.404;2022-08-11T11:54:23;95471.31;;;27.21;52.67
18167;BME280;9208;42.688;23.404;2022-08-11T11:56:51;95469.19;;;27.12;52.54
18167;BME280;9208;42.688;23.404;2022-08-11T11:59:22;95459.78;;;27.00;53.50
18167;BME280;9208;42.688;23.404;2022-08-11T12:02:08;95457.72;;;27.00;53.53
18167;BME280;9208;42.688;23.404;2022-08-11T12:04:40;95458.63;;;27.03;53.60
18167;BME280;9208;42.688;23.404;2022-08-11T12:07:07;95455.22;;;27.04;53.22
18167;BME280;9208;42.688;23.404;2022-08-11T12:09:53;95450.06;;;27.10;53.85
18167;BME280;9208;42.688;23.404;2022-08-11T12:12:20;95450.84;;;27.20;53.38
18167;BME280;9208;42.688;23.404;2022-08-11T12:15:08;95452.50;;;27.23;52.89
18167;BME280;9208;42.688;23.404;2022-08-11T12:17:35;95441.56;;;27.37;52.71
18167;BME280;9208;42.688;23.404;2022-08-11T12:20:02;95403.03;;;27.30;57.34
18167;BME280;9208;42.688;23.404;2022-08-11T12:22:28;95391.84;;;27.13;58.86
18167;BME280;9208;42.688;23.404;2022-08-11T12:28:40;95391.28;;;27.14;58.94
18167;BME280;9208;42.688;23.404;2022-08-11T12:31:06;95397.63;;;27.05;59.07
18167;BME280;9208;42.688;23.404;2022-08-11T12:33:37;95419.94;;;26.94;57.55
18167;BME280;9208;42.688;23.404;2022-08-11T12:36:05;95418.56;;;26.85;57.11
18167;BME280;9208;42.688;23.404;2022-08-11T12:38:33;95406.91;;;26.89;59.43
18167;BME280;9208;42.688;23.404;2022-08-11T12:41:00;95414.31;;;26.94;58.59
18167;BME280;9208;42.688;23.404;2022-08-11T12:43:46;95429.88;;;26.95;58.28
18167;BME280;9208;42.688;23.404;2022-08-11T12:46:36;95468.72;;;27.06;55.06
18167;BME280;9208;42.688;23.404;2022-08-11T12:49:14;95463.38;;;27.10;55.56
18167;BME280;9208;42.688;23.404;2022-08-11T12:52:07;95444.81;;;26.88;57.76
18167;BME280;9208;42.688;23.404;2022-08-11T12:57:41;95419.69;;;27.09;63.09
18167;BME280;9208;42.688;23.404;2022-08-11T13:00:28;95440.28;;;27.11;62.18
18167;BME280;9208;42.688;23.404;2022-08-11T13:03:13;95431.78;;;26.92;64.37
18167;BME280;9208;42.688;23.404;2022-08-11T13:05:59;95428.91;;;26.83;66.55
18167;BME280;9208;42.688;23.404;2022-08-11T13:08:28;95431.50;;;26.62;68.17
18167;BME280;9208;42.688;23.404;2022-08-11T13:10:56;95452.13;;;26.47;65.34
18167;BME280;9208;42.688;23.404;2022-08-11T13:13:41;95474.75;;;26.49;62.27
18167;BME280;9208;42.688;23.404;2022-08-11T13:16:09;95465.75;;;26.51;61.62
18167;BME280;9208;42.688;23.404;2022-08-11T13:18:36;95442.50;;;26.24;64.46
18167;BME280;9208;42.688;23.404;2022-08-11T13:21:03;95438.53;;;26.27;68.48
18167;BME280;9208;42.688;23.404;2022-08-11T13:23:29;95445.28;;;26.41;68.88
18167;BME280;9208;42.688;23.404;2022-08-11T13:25:56;95449.00;;;26.26;64.32
18167;BME280;9208;42.688;23.404;2022-08-11T13:28:22;95441.78;;;26.23;62.35
18167;BME280;9208;42.688;23.404;2022-08-11T13:30:49;95440.03;;;26.11;62.05
18167;BME280;9208;42.688;23.404;2022-08-11T13:33:47;95452.47;;;26.08;59.60
18167;BME280;9208;42.688;23.404;2022-08-11T13:36:21;95441.78;;;26.06;61.18
18167;BME280;9208;42.688;23.404;2022-08-11T13:38:52;95438.75;;;26.12;59.65
18167;BME280;9208;42.688;23.404;2022-08-11T13:41:19;95464.34;;;26.16;55.25
18167;BME280;9208;42.688;23.404;2022-08-11T13:44:04;95458.34;;;26.29;55.62
18167;BME280;9208;42.688;23.404;2022-08-11T13:47:02;95444.31;;;26.29;55.52
18167;BME280;9208;42.688;23.404;2022-08-11T13:49:34;95454.97;;;26.30;54.56
18167;BME280;9208;42.688;23.404;2022-08-11T13:52:02;95444.94;;;26.37;55.98
18167;BME280;9208;42.688;23.404;2022-08-11T13:54:34;95432.88;;;26.44;56.19
18167;BME280;9208;42.688;23.404;2022-08-11T13:57:05;95436.63;;;26.56;55.52
18167;BME280;9208;42.688;23.404;2022-08-11T13:59:31;95435.66;;;26.61;54.92
18167;BME280;9208;42.688;23.404;2022-08-11T14:02:00;95446.69;;;26.76;53.21
18167;BME280;9208;42.688;23.404;2022-08-11T14:04:33;95458.97;;;26.80;51.63
18167;BME280;9208;42.688;23.404;2022-08-11T14:07:06;95469.50;;;26.80;50.83
18167;BME280;9208;42.688;23.404;2022-08-11T14:09:36;95452.19;;;26.83;52.41
18167;BME280;9208;42.688;23.404;2022-08-11T14:12:07;95452.97;;;26.93;51.81
18167;BME280;9208;42.688;23.404;2022-08-11T14:14:59;95460.22;;;26.96;50.53
18167;BME280;9208;42.688;23.404;2022-08-11T14:17:29;95452.69;;;26.99;51.29
18167;BME280;9208;42.688;23.404;2022-08-11T14:19:56;95461.19;;;27.08;50.00
18167;BME280;9208;42.688;23.404;2022-08-11T14:22:25;95464.66;;;27.26;49.10
18167;BME280;9208;42.688;23.404;2022-08-11T14:24:52;95484.22;;;27.24;47.78
18167;BME280;9208;42.688;23.404;2022-08-11T14:27:18;95473.72;;;27.34;48.16
18167;BME280;9208;42.688;23.404;2022-08-11T14:29:51;95458.75;;;27.41;49.01
18167;BME280;9208;42.688;23.404;2022-08-11T14:32:19;95452.09;;;27.46;49.59
18167;BME280;9208;42.688;23.404;2022-08-11T14:34:46;95453.03;;;27.48;49.95
18167;BME280;9208;42.688;23.404;2022-08-11T14:37:14;95438.94;;;27.58;50.74
18167;BME280;9208;42.688;23.404;2022-08-11T14:39:44;95434.47;;;27.55;51.11
18167;BME280;9208;42.688;23.404;2022-08-11T14:42:16;95427.84;;;27.60;51.49
18167;BME280;9208;42.688;23.404;2022-08-11T14:45:04;95425.00;;;27.69;51.13
18167;BME280;9208;42.688;23.404;2022-08-11T14:47:57;95434.81;;;27.78;50.41
18167;BME280;9208;42.688;23.404;2022-08-11T14:50:28;95448.56;;;27.64;49.17
18167;BME280;9208;42.688;23.404;2022-08-11T14:52:56;95453.47;;;27.64;48.51
18167;BME280;9208;42.688;23.404;2022-08-11T14:55:27;95447.25;;;27.75;48.49
18167;BME280;9208;42.688;23.404;2022-08-11T14:58:16;95434.66;;;27.76;50.19
18167;BME280;9208;42.688;23.404;2022-08-11T15:00:43;95452.78;;;27.82;48.31
18167;BME280;9208;42.688;23.404;2022-08-11T15:03:11;95454.25;;;27.93;47.13
18167;BME280;9208;42.688;23.404;2022-08-11T15:06:00;95426.81;;;27.84;50.05
18167;BME280;9208;42.688;23.404;2022-08-11T15:08:30;95422.22;;;27.79;49.72
18167;BME280;9208;42.688;23.404;2022-08-11T15:11:17;95430.50;;;27.77;49.65
18167;BME280;9208;42.688;23.404;2022-08-11T15:14:04;95429.75;;;27.67;50.06
18167;BME280;9208;42.688;23.404;2022-08-11T15:16:30;95421.75;;;27.73;49.77
18167;BME280;9208;42.688;23.404;2022-08-11T15:19:15;95426.19;;;27.76;49.20
18167;BME280;9208;42.688;23.404;2022-08-11T15:21:43;95436.75;;;27.75;48.62
18167;BME280;9208;42.688;23.404;2022-08-11T15:24:44;95436.75;;;27.75;48.58
18167;BME280;9208;42.688;23.404;2022-08-11T15:27:12;95439.44;;;27.83;48.90
18167;BME280;9208;42.688;23.404;2022-08-11T15:29:58;95445.66;;;27.91;47.89
18167;BME280;9208;42.688;23.404;2022-08-11T15:32:45;95434.53;;;27.83;48.67
18167;BME280;9208;42.688;23.404;2022-08-11T15:35:31;95434.81;;;27.87;48.52
18167;BME280;9208;42.688;23.404;2022-08-11T15:38:19;95429.66;;;27.84;48.73
18167;BME280;9208;42.688;23.404;2022-08-11T15:40:47;95431.13;;;27.85;48.34
18167;BME280;9208;42.688;23.404;2022-08-11T15:43:38;95420.13;;;27.70;48.45
18167;BME280;9208;42.688;23.404;2022-08-11T15:46:32;95416.72;;;27.62;49.04
18167;BME280;9208;42.688;23.404;2022-08-11T15:49:21;95415.22;;;27.61;48.96
18167;BME280;9208;42.688;23.404;2022-08-11T15:51:50;95409.88;;;27.55;49.04
18167;BME280;9208;42.688;23.404;2022-08-11T15:54:24;95423.81;;;27.63;48.60
18167;BME280;9208;42.688;23.404;2022-08-11T15:56:52;95408.38;;;27.45;49.51
18167;BME280;9208;42.688;23.404;2022-08-11T15:59:20;95405.25;;;27.41;50.24
18167;BME280;9208;42.688;23.404;2022-08-11T16:02:07;95405.88;;;27.39;50.32
18167;BME280;9208;42.688;23.404;2022-08-11T16:04:55;95400.66;;;27.36;50.50
18167;BME280;9208;42.688;23.404;2022-08-11T16:07:26;95406.28;;;27.26;50.91
18167;BME280;9208;42.688;23.404;2022-08-11T16:10:15;95409.97;;;27.19;51.10
18167;BME280;9208;42.688;23.404;2022-08-11T16:12:49;95401.06;;;27.13;51.54
18167;BME280;9208;42.688;23.404;2022-08-11T16:15:33;95407.84;;;27.10;51.38
18167;BME280;9208;42.688;23.404;2022-08-11T16:18:21;95398.66;;;27.10;51.46
18167;BME280;9208;42.688;23.404;2022-08-11T16:20:50;95392.13;;;27.07;51.76
18167;BME280;9208;42.688;23.404;2022-08-11T16:23:20;95397.63;;;27.05;52.02
18167;BME280;9208;42.688;23.404;2022-08-11T16:25:50;95389.75;;;27.04;51.66
18167;BME280;9208;42.688;23.404;2022-08-11T16:28:18;95394.50;;;27.01;51.44
18167;BME280;9208;42.688;23.404;2022-08-11T16:30:45;95398.06;;;27.02;51.39
18167;BME280;9208;42.688;23.404;2022-08-11T16:33:11;95391.63;;;26.92;52.05
18167;BME280;9208;42.688;23.404;2022-08-11T16:35:38;95392.84;;;26.98;51.95
18167;BME280;9208;42.688;23.404;2022-08-11T16:38:25;95390.91;;;26.91;52.38
18167;BME280;9208;42.688;23.404;2022-08-11T16:41:05;95394.00;;;26.86;52.06
18167;BME280;9208;42.688;23.404;2022-08-11T16:43:36;95393.84;;;26.84;52.09
18167;BME280;9208;42.688;23.404;2022-08-11T16:46:23;95401.53;;;26.83;52.56
18167;BME280;9208;42.688;23.404;2022-08-11T16:49:15;95402.75;;;26.90;52.43
18167;BME280;9208;42.688;23.404;2022-08-11T16:51:43;95401.97;;;26.80;52.33
18167;BME280;9208;42.688;23.404;2022-08-11T16:54:09;95408.34;;;26.80;52.30
18167;BME280;9208;42.688;23.404;2022-08-11T16:56:51;95408.47;;;26.73;52.47
18167;BME280;9208;42.688;23.404;2022-08-11T16:59:21;95400.13;;;26.65;52.94
18167;BME280;9208;42.688;23.404;2022-08-11T17:04:45;95402.50;;;26.69;52.59
18167;BME280;9208;42.688;23.404;2022-08-11T17:07:32;95418.34;;;26.64;52.72
18167;BME280;9208;42.688;23.404;2022-08-11T17:10:22;95408.69;;;26.58;53.09
18167;BME280;9208;42.688;23.404;2022-08-11T17:13:09;95412.41;;;26.60;53.22
18167;BME280;9208;42.688;23.404;2022-08-11T17:15:46;95420.25;;;26.62;52.99
18167;BME280;9208;42.688;23.404;2022-08-11T17:18:33;95418.94;;;26.63;53.37
18167;BME280;9208;42.688;23.404;2022-08-11T17:21:25;95416.25;;;26.65;53.37
18167;BME280;9208;42.688;23.404;2022-08-11T17:24:03;95411.91;;;26.54;53.67
18167;BME280;9208;42.688;23.404;2022-08-11T17:26:35;95417.69;;;26.56;53.70
18167;BME280;9208;42.688;23.404;2022-08-11T17:29:32;95423.06;;;26.62;53.22
18167;BME280;9208;42.688;23.404;2022-08-11T17:32:00;95429.59;;;26.64;53.37
18167;BME280;9208;42.688;23.404;2022-08-11T17:34:46;95425.13;;;26.61;53.46
18167;BME280;9208;42.688;23.404;2022-08-11T17:37:32;95436.72;;;26.48;53.30
18167;BME280;9208;42.688;23.404;2022-08-11T17:40:04;95439.66;;;26.41;53.22
18167;BME280;9208;42.688;23.404;2022-08-11T17:42:31;95439.31;;;26.37;53.23
18167;BME280;9208;42.688;23.404;2022-08-11T17:45:19;95445.53;;;26.35;53.34
18167;BME280;9208;42.688;23.404;2022-08-11T17:48:04;95442.50;;;26.24;54.11
18167;BME280;9208;42.688;23.404;2022-08-11T17:50:51;95440.88;;;26.21;54.58
18167;BME280;9208;42.688;23.404;2022-08-11T17:53:18;95448.44;;;26.28;54.12
18167;BME280;9208;42.688;23.404;2022-08-11T17:56:03;95448.75;;;26.32;53.81
18167;BME280;9208;42.688;23.404;2022-08-11T17:58:49;95449.91;;;26.29;53.96
18167;BME280;9208;42.688;23.404;2022-08-11T18:01:36;95456.28;;;26.29;53.86
18167;BME280;9208;42.688;23.404;2022-08-11T18:04:09;95455.66;;;26.21;53.78
18167;BME280;9208;42.688;23.404;2022-08-11T18:06:36;95462.34;;;26.26;54.06
18167;BME280;9208;42.688;23.404;2022-08-11T18:09:04;95472.09;;;26.25;53.67
18167;BME280;9208;42.688;23.404;2022-08-11T18:11:51;95477.13;;;26.26;53.37
18167;BME280;9208;42.688;23.404;2022-08-11T18:14:37;95465.47;;;26.30;53.33
18167;BME280;9208;42.688;23.404;2022-08-11T18:17:21;95481.34;;;26.35;53.10
18167;BME280;9208;42.688;23.404;2022-08-11T18:20:06;95488.59;;;26.38;52.92
18167;BME280;9208;42.688;23.404;2022-08-11T18:22:51;95494.22;;;26.38;53.08